Terminal Aerodrome Forecast
Issued by NWS

Home | Current Version | Previous Version | Text Only | Print | Product List | Glossary On
Versions: 1 2 3 4 5 6 7 8 9 10 11 12 13 14
125
FTUS44 KLIX 302110 AAA
TAFGPT
TAF AMD
KGPT 302110Z 3021/3118 16009KT P6SM SKC
      TEMPO 3021/3023 VRB13G25KT 2SM TSRA BKN028CB
     FM310000 21006KT P6SM FEW150 SCT250
     FM311300 29004KT P6SM SCT050 BKN140
     FM311600 22005KT P6SM SCT050 BKN150=

USA.gov is the U.S. government's official web portal to all federal, state and local government web resources and services.